Time;durP1;ratioP1;P1;durP2;ratioP2;P2;SDS_P1;SDS_P2;PMS_P1;PMS_P2;Temp;Humidity;BMP_temperature;BMP_pressure;BME280_temperature;BME280_humidity;BME280_pressure;Samples;Min_cycle;Max_cycle;Signal;HPM_P1;HPM_P2
2021/03/13 00:00:58;;;;;;;;;;;;;;;17.91;36.60;98981.59;4414829;32;19956;-55
2021/03/13 00:03:24;;;;;;;;;;;;;;;17.90;36.65;98988.63;4414178;32;19960;-53
2021/03/13 00:05:50;;;;;;;;;;;;;;;17.88;36.65;98977.22;4414622;32;19976;-54
2021/03/13 00:08:16;;;;;;;;;;;;;;;17.92;36.58;98984.22;4413647;32;19958;-55
2021/03/13 00:10:42;;;;;;;;;;;;;;;17.87;36.53;98983.34;4414888;32;20667;-53
2021/03/13 00:13:07;;;;;;;;;;;;;;;17.88;36.64;98982.47;4414350;32;19958;-55
2021/03/13 00:15:33;;;;;;;;;;;;;;;17.88;36.67;98987.75;4415150;32;19965;-54
2021/03/13 00:17:59;;;;;;;;;;;;;;;17.86;36.54;98993.88;4414076;32;19958;-55
2021/03/13 00:20:26;;;;;;;;;;;;;;;17.85;36.58;98982.47;4413961;32;19962;-56
2021/03/13 00:22:52;;;;;;;;;;;;;;;17.89;36.65;98986.87;4415231;32;19993;-53
2021/03/13 00:25:18;;;;;;;;;;;;;;;17.83;36.77;98982.47;4414660;32;19968;-56
2021/03/13 00:27:47;;;;;;;;;;;;;;;17.84;36.74;98978.06;4414829;32;19991;-54
2021/03/13 00:30:13;;;;;;;;;;;;;;;17.84;36.73;98983.34;4414553;32;20027;-52
2021/03/13 00:32:38;;;;;;;;;;;;;;;17.81;36.82;98970.16;4413754;32;20402;-54
2021/03/13 00:35:04;;;;;;;;;;;;;;;17.80;36.93;98973.69;4413827;32;20002;-55
2021/03/13 00:37:30;;;;;;;;;;;;;;;17.79;36.89;98971.94;4414639;32;19977;-54
2021/03/13 00:39:56;;;;;;;;;;;;;;;17.80;36.84;98969.31;4413857;32;20566;-51
2021/03/13 00:42:22;;;;;;;;;;;;;;;17.78;36.67;98975.44;4411829;32;20053;-53
2021/03/13 00:44:48;;;;;;;;;;;;;;;17.78;36.94;98970.19;4413644;32;20314;-55
2021/03/13 00:47:14;;;;;;;;;;;;;;;17.78;36.81;98962.28;4413241;32;19957;-55
2021/03/13 00:49:40;;;;;;;;;;;;;;;17.79;36.77;98954.38;4414285;32;19980;-56
2021/03/13 00:52:06;;;;;;;;;;;;;;;17.78;36.86;98954.38;4415840;32;20011;-55
2021/03/13 00:54:31;;;;;;;;;;;;;;;17.72;36.98;98955.25;4416340;32;19954;-53
2021/03/13 00:56:57;;;;;;;;;;;;;;;17.76;36.92;98945.59;4417057;32;19958;-55
2021/03/13 00:59:23;;;;;;;;;;;;;;;17.76;37.04;98940.34;4417545;32;20349;-54
2021/03/13 01:01:49;;;;;;;;;;;;;;;17.73;36.94;98949.09;4417133;32;20018;-56
2021/03/13 01:04:15;;;;;;;;;;;;;;;17.68;36.96;98941.19;4416777;32;19954;-53
2021/03/13 01:06:41;;;;;;;;;;;;;;;17.73;36.86;98940.34;4417580;32;20037;-53
2021/03/13 01:09:07;;;;;;;;;;;;;;;17.77;37.00;98937.69;4416317;32;19954;-53
2021/03/13 01:11:33;;;;;;;;;;;;;;;17.73;36.91;98928.03;4417782;32;19968;-54
2021/03/13 01:13:58;;;;;;;;;;;;;;;17.69;37.01;98935.06;4417598;32;20000;-56
2021/03/13 01:16:24;;;;;;;;;;;;;;;17.70;37.00;98915.75;4416598;32;20021;-56
2021/03/13 01:18:50;;;;;;;;;;;;;;;17.69;37.05;98924.53;4416187;32;19968;-51
2021/03/13 01:21:16;;;;;;;;;;;;;;;17.66;37.00;98918.41;4416547;32;19958;-56
2021/03/13 01:23:42;;;;;;;;;;;;;;;17.70;36.91;98909.63;4417229;32;20610;-54
2021/03/13 01:26:08;;;;;;;;;;;;;;;17.68;36.98;98912.25;4417157;32;19958;-54
2021/03/13 01:28:34;;;;;;;;;;;;;;;17.63;37.19;98908.75;4416705;32;19942;-54
2021/03/13 01:31:00;;;;;;;;;;;;;;;17.67;36.97;98905.22;4413449;32;20325;-55
2021/03/13 01:33:25;;;;;;;;;;;;;;;17.65;37.16;98899.09;4416764;32;19961;-56
2021/03/13 01:35:51;;;;;;;;;;;;;;;17.65;36.93;98891.19;4416083;32;19958;-54
2021/03/13 01:38:17;;;;;;;;;;;;;;;17.63;37.06;98887.69;4415792;32;20040;-54
2021/03/13 01:40:43;;;;;;;;;;;;;;;17.65;37.12;98887.66;4416948;32;19968;-55
2021/03/13 01:43:09;;;;;;;;;;;;;;;17.64;37.04;98883.28;4416260;32;19950;-53
2021/03/13 01:45:35;;;;;;;;;;;;;;;17.63;37.06;98882.41;4417261;32;20001;-54
2021/03/13 01:48:01;;;;;;;;;;;;;;;17.57;37.20;98885.03;4416144;32;19999;-55
2021/03/13 01:50:27;;;;;;;;;;;;;;;17.68;37.02;98875.38;4416235;32;19999;-55
2021/03/13 01:52:53;;;;;;;;;;;;;;;17.64;37.20;98873.63;4416230;32;19989;-55
2021/03/13 01:55:19;;;;;;;;;;;;;;;17.61;37.09;98868.38;4416098;32;19962;-53
2021/03/13 01:57:45;;;;;;;;;;;;;;;17.59;37.20;98861.34;4416627;32;20317;-56
2021/03/13 02:00:11;;;;;;;;;;;;;;;17.58;37.09;98851.72;4415699;32;19969;-54
2021/03/13 02:02:36;;;;;;;;;;;;;;;17.60;37.12;98847.31;4415775;32;19958;-56
2021/03/13 02:05:02;;;;;;;;;;;;;;;17.58;37.25;98835.91;4416094;32;20023;-51
2021/03/13 02:07:28;;;;;;;;;;;;;;;17.59;37.23;98827.13;4414453;32;20286;-54
2021/03/13 02:09:54;;;;;;;;;;;;;;;17.58;37.37;98826.25;4416572;32;19957;-55
2021/03/13 02:12:20;;;;;;;;;;;;;;;17.60;37.20;98827.16;4415663;32;19970;-53
2021/03/13 02:14:46;;;;;;;;;;;;;;;17.56;37.29;98817.47;4413915;32;20404;-53
2021/03/13 02:17:12;;;;;;;;;;;;;;;17.60;37.21;98818.34;4415384;32;20390;-52
2021/03/13 02:19:38;;;;;;;;;;;;;;;17.63;37.17;98813.97;4416319;32;19998;-55
2021/03/13 02:22:04;;;;;;;;;;;;;;;17.55;37.26;98811.34;4414481;32;19969;-55
2021/03/13 02:24:30;;;;;;;;;;;;;;;17.58;37.25;98806.97;4415470;32;19970;-54
2021/03/13 02:26:56;;;;;;;;;;;;;;;17.57;37.18;98798.16;4416754;32;20342;-53
2021/03/13 02:29:22;;;;;;;;;;;;;;;17.56;37.40;98797.31;4416160;32;20020;-52
2021/03/13 02:31:47;;;;;;;;;;;;;;;17.57;37.27;98787.63;4416161;32;20006;-55
2021/03/13 02:34:13;;;;;;;;;;;;;;;17.63;37.14;98785.00;4414761;32;20373;-55
2021/03/13 02:36:39;;;;;;;;;;;;;;;17.61;37.14;98781.50;4416701;32;19980;-56
2021/03/13 02:39:05;;;;;;;;;;;;;;;17.54;37.35;98782.37;4414627;32;19958;-52
2021/03/13 02:41:31;;;;;;;;;;;;;;;17.55;37.29;98778.88;4416108;32;19974;-56
2021/03/13 02:43:57;;;;;;;;;;;;;;;17.50;37.28;98780.66;4416842;32;20027;-53
2021/03/13 02:46:23;;;;;;;;;;;;;;;17.54;37.29;98770.12;4414289;32;20041;-54
2021/03/13 02:48:49;;;;;;;;;;;;;;;17.47;37.46;98770.09;4415539;32;20302;-53
2021/03/13 02:51:15;;;;;;;;;;;;;;;17.59;37.20;98770.09;4415345;32;19969;-54
2021/03/13 02:53:41;;;;;;;;;;;;;;;17.59;37.13;98764.81;4415280;32;20360;-54
2021/03/13 02:56:06;;;;;;;;;;;;;;;17.56;37.22;98760.47;4414829;32;20421;-54
2021/03/13 02:58:32;;;;;;;;;;;;;;;17.52;37.41;98763.09;4414890;32;19962;-55
2021/03/13 03:00:58;;;;;;;;;;;;;;;17.55;37.42;98752.56;4416008;32;19976;-52
2021/03/13 03:03:24;;;;;;;;;;;;;;;17.49;37.39;98752.59;4415075;32;19958;-55
2021/03/13 03:05:50;;;;;;;;;;;;;;;17.51;37.33;98748.19;4415553;32;19958;-54
2021/03/13 03:08:16;;;;;;;;;;;;;;;17.55;37.50;98737.66;4414143;32;19990;-53
2021/03/13 03:10:42;;;;;;;;;;;;;;;17.54;37.25;98737.66;4415765;32;19977;-55
2021/03/13 03:13:07;;;;;;;;;;;;;;;17.48;37.47;98725.38;4415344;32;20472;-54
2021/03/13 03:15:33;;;;;;;;;;;;;;;17.45;37.42;98721.88;4414961;32;19958;-54
2021/03/13 03:17:59;;;;;;;;;;;;;;;17.42;37.73;98723.62;4415544;32;19950;-53
2021/03/13 03:20:25;;;;;;;;;;;;;;;17.52;37.46;98713.94;4415203;32;19992;-53
2021/03/13 03:22:51;;;;;;;;;;;;;;;17.50;37.45;98699.06;4414363;32;19962;-51
2021/03/13 03:25:17;;;;;;;;;;;;;;;17.46;37.52;98708.72;4415822;32;19954;-55
2021/03/13 03:27:53;;;;;;;;;;;;;;;17.52;37.42;98700.78;4415541;32;20369;-56
2021/03/13 03:30:19;;;;;;;;;;;;;;;17.49;37.43;98694.69;4411400;32;20048;-53
2021/03/13 03:32:45;;;;;;;;;;;;;;;17.46;37.40;98692.94;4413921;32;19954;-56
2021/03/13 03:35:11;;;;;;;;;;;;;;;17.48;37.41;98690.31;4414241;32;19991;-54
2021/03/13 03:37:37;;;;;;;;;;;;;;;17.40;37.56;98687.66;4413870;32;20004;-56
2021/03/13 03:40:03;;;;;;;;;;;;;;;17.47;37.63;98681.50;4414494;32;20005;-54
2021/03/13 03:42:28;;;;;;;;;;;;;;;17.38;37.71;98677.16;4415295;32;20001;-55
2021/03/13 03:44:54;;;;;;;;;;;;;;;17.43;37.54;98671.88;4414827;32;19954;-53
2021/03/13 03:47:20;;;;;;;;;;;;;;;17.46;37.50;98668.34;4414110;32;19954;-56
2021/03/13 03:49:46;;;;;;;;;;;;;;;17.38;37.76;98664.00;4415384;32;19958;-55
2021/03/13 03:52:12;;;;;;;;;;;;;;;17.35;38.05;98663.12;4413645;32;19998;-53
2021/03/13 03:54:38;;;;;;;;;;;;;;;17.36;37.72;98647.34;4414833;32;19995;-55
2021/03/13 03:57:04;;;;;;;;;;;;;;;17.41;37.60;98649.97;4415253;32;19977;-53
2021/03/13 03:59:29;;;;;;;;;;;;;;;17.45;37.56;98651.69;4414096;32;20358;-54
2021/03/13 04:01:55;;;;;;;;;;;;;;;17.38;37.66;98647.31;4413701;32;19954;-53
2021/03/13 04:04:21;;;;;;;;;;;;;;;17.38;37.79;98649.94;4414086;32;19994;-55
2021/03/13 04:06:47;;;;;;;;;;;;;;;17.43;37.53;98656.09;4414706;32;19979;-52
2021/03/13 04:09:13;;;;;;;;;;;;;;;17.37;37.62;98654.34;4414351;32;20335;-56
2021/03/13 04:11:39;;;;;;;;;;;;;;;17.38;37.98;98653.47;4414361;32;19993;-55
2021/03/13 04:14:05;;;;;;;;;;;;;;;17.37;37.75;98661.38;4413431;32;19962;-55
2021/03/13 04:16:31;;;;;;;;;;;;;;;17.40;37.82;98651.72;4415502;32;20522;-55
2021/03/13 04:18:57;;;;;;;;;;;;;;;17.33;38.01;98647.34;4414016;32;19965;-53
2021/03/13 04:21:23;;;;;;;;;;;;;;;17.28;37.98;98652.63;4413962;32;20392;-54
2021/03/13 04:23:48;;;;;;;;;;;;;;;17.32;38.05;98645.59;4414902;32;19973;-55
2021/03/13 04:26:14;;;;;;;;;;;;;;;17.27;38.20;98644.72;4414340;32;19985;-55
2021/03/13 04:28:40;;;;;;;;;;;;;;;17.26;38.20;98648.25;4413797;32;20603;-54
2021/03/13 04:31:06;;;;;;;;;;;;;;;17.29;37.88;98640.34;4414293;32;19960;-55
2021/03/13 04:33:32;;;;;;;;;;;;;;;17.31;38.15;98630.69;4413948;32;19972;-55
2021/03/13 04:35:58;;;;;;;;;;;;;;;17.34;37.89;98622.78;4413808;32;19961;-55
2021/03/13 04:38:24;;;;;;;;;;;;;;;17.35;37.86;98619.28;4414371;32;20012;-56
2021/03/13 04:40:50;;;;;;;;;;;;;;;17.24;38.23;98616.66;4414973;32;19980;-54
2021/03/13 04:43:16;;;;;;;;;;;;;;;17.31;37.96;98601.75;4411827;32;20406;-53
2021/03/13 04:45:42;;;;;;;;;;;;;;;17.29;37.96;98595.62;4414629;32;19961;-53
2021/03/13 04:48:08;;;;;;;;;;;;;;;17.32;37.87;98582.44;4412343;32;20401;-54
2021/03/13 04:50:33;;;;;;;;;;;;;;;17.35;37.98;98577.19;4413486;32;19954;-55
2021/03/13 04:52:59;;;;;;;;;;;;;;;17.30;37.96;98568.41;4413833;32;19962;-56
2021/03/13 04:55:25;;;;;;;;;;;;;;;17.28;38.08;98578.06;4414391;32;19955;-55
2021/03/13 04:57:51;;;;;;;;;;;;;;;17.30;38.16;98580.72;4414533;32;20042;-56
2021/03/13 05:00:17;;;;;;;;;;;;;;;17.27;38.00;98565.81;4413349;32;19968;-55
2021/03/13 05:02:43;;;;;;;;;;;;;;;17.35;37.87;98566.66;4415037;32;19968;-52
2021/03/13 05:05:09;;;;;;;;;;;;;;;17.32;38.16;98571.91;4413459;32;19972;-55
2021/03/13 05:07:35;;;;;;;;;;;;;;;17.27;38.12;98552.66;4413728;32;19993;-55
2021/03/13 05:10:01;;;;;;;;;;;;;;;17.26;38.26;98548.28;4415146;32;19997;-53
2021/03/13 05:12:27;;;;;;;;;;;;;;;17.29;38.19;98535.09;4414313;32;19972;-55
2021/03/13 05:14:53;;;;;;;;;;;;;;;17.36;37.74;98541.22;4413352;32;19990;-56
2021/03/13 05:17:19;;;;;;;;;;;;;;;17.30;38.12;98539.47;4413514;32;19961;-54
2021/03/13 05:19:45;;;;;;;;;;;;;;;17.17;38.41;98528.16;4413507;32;19997;-55
2021/03/13 05:22:11;;;;;;;;;;;;;;;17.19;38.45;98520.22;4413255;32;20337;-52
2021/03/13 05:24:37;;;;;;;;;;;;;;;17.25;38.21;98522.84;4414651;32;19985;-54
2021/03/13 05:27:03;;;;;;;;;;;;;;;17.32;38.05;98519.28;4413921;32;19968;-55
2021/03/13 05:29:29;;;;;;;;;;;;;;;17.28;38.15;98513.19;4413823;32;19962;-55
2021/03/13 05:31:54;;;;;;;;;;;;;;;17.30;38.11;98509.69;4414482;32;20580;-55
2021/03/13 05:34:20;;;;;;;;;;;;;;;17.17;38.53;98512.38;4414029;32;19965;-56
2021/03/13 05:36:46;;;;;;;;;;;;;;;17.19;38.51;98505.34;4413424;32;19995;-54
2021/03/13 05:39:12;;;;;;;;;;;;;;;17.09;38.84;98501.84;4416313;32;20063;-55
2021/03/13 05:41:38;;;;;;;;;;;;;;;17.13;38.64;98493.09;4417704;32;20471;-54
2021/03/13 05:44:04;;;;;;;;;;;;;;;17.18;38.48;98489.56;4415724;32;19958;-55
2021/03/13 05:46:36;;;;;;;;;;;;;;;17.21;38.41;98482.53;4417038;32;20287;-56
2021/03/13 05:49:02;;;;;;;;;;;;;;;17.22;38.38;98481.66;4415061;32;19954;-55
2021/03/13 05:51:28;;;;;;;;;;;;;;;17.23;38.64;98477.28;4414943;32;20481;-55
2021/03/13 05:53:54;;;;;;;;;;;;;;;17.20;38.34;98482.53;4417633;32;19985;-55
2021/03/13 05:56:20;;;;;;;;;;;;;;;17.16;38.67;98481.66;4416656;32;19958;-54
2021/03/13 05:58:46;;;;;;;;;;;;;;;17.10;38.70;98472.06;4415859;32;20003;-55
2021/03/13 06:01:12;;;;;;;;;;;;;;;17.09;38.70;98458.91;4414166;32;19964;-54
2021/03/13 06:03:37;;;;;;;;;;;;;;;17.07;38.67;98445.75;4416746;32;19954;-54
2021/03/13 06:06:03;;;;;;;;;;;;;;;17.03;38.94;98444.03;4415535;32;19957;-55
2021/03/13 06:08:29;;;;;;;;;;;;;;;17.04;38.91;98443.16;4415797;32;19966;-55
2021/03/13 06:10:56;;;;;;;;;;;;;;;17.16;38.67;98444.84;4416974;32;20687;-55
2021/03/13 06:13:21;;;;;;;;;;;;;;;17.10;38.69;98434.34;4416269;32;19970;-54
2021/03/13 06:15:48;;;;;;;;;;;;;;;17.10;38.80;98424.72;4416168;32;19983;-55
2021/03/13 06:18:14;;;;;;;;;;;;;;;17.11;38.91;98426.47;4415161;32;20305;-52
2021/03/13 06:20:40;;;;;;;;;;;;;;;17.05;38.98;98418.59;4416204;32;19961;-54
2021/03/13 06:23:05;;;;;;;;;;;;;;;17.07;39.01;98414.19;4414487;32;20056;-52
2021/03/13 06:25:31;;;;;;;;;;;;;;;17.02;38.84;98397.59;4416386;32;20406;-54
2021/03/13 06:27:57;;;;;;;;;;;;;;;17.10;38.85;98406.31;4415986;32;19942;-55
2021/03/13 06:30:23;;;;;;;;;;;;;;;17.09;38.69;98396.66;4415007;32;20089;-51
2021/03/13 06:32:49;;;;;;;;;;;;;;;17.07;38.87;98393.16;4414057;32;19984;-56
2021/03/13 06:35:15;;;;;;;;;;;;;;;17.12;38.72;98396.66;4415160;32;20599;-54
2021/03/13 06:37:41;;;;;;;;;;;;;;;17.08;38.97;98397.53;4415467;32;19958;-51
2021/03/13 06:40:06;;;;;;;;;;;;;;;17.17;38.58;98398.38;4415935;32;19999;-55
2021/03/13 06:42:32;;;;;;;;;;;;;;;17.19;38.51;98386.09;4415345;32;20301;-55
2021/03/13 06:44:58;;;;;;;;;;;;;;;17.05;38.71;98379.16;4416844;32;20000;-54
2021/03/13 06:47:24;;;;;;;;;;;;;;;17.06;38.90;98373.00;4415112;32;19969;-54
2021/03/13 06:49:50;;;;;;;;;;;;;;;17.12;38.82;98373.00;4415353;32;19986;-57
2021/03/13 06:52:16;;;;;;;;;;;;;;;17.11;38.59;98371.25;4415386;32;19966;-55
2021/03/13 06:54:42;;;;;;;;;;;;;;;17.02;38.96;98363.41;4415922;32;19981;-51
2021/03/13 06:57:08;;;;;;;;;;;;;;;17.06;38.83;98359.84;4410906;32;19981;-55
2021/03/13 06:59:35;;;;;;;;;;;;;;;17.20;38.62;98372.03;4411288;32;19981;-51
2021/03/13 07:02:01;;;;;;;;;;;;;;;17.10;38.80;98366.88;4398146;32;19977;-55
2021/03/13 07:04:27;;;;;;;;;;;;;;;17.11;38.78;98368.63;4396432;32;20367;-52
2021/03/13 07:06:53;;;;;;;;;;;;;;;17.09;38.76;98359.84;4401060;32;21202;-54
2021/03/13 07:09:19;;;;;;;;;;;;;;;17.03;39.07;98344.09;4414933;32;19968;-54
2021/03/13 07:11:45;;;;;;;;;;;;;;;17.04;38.83;98342.34;4415119;32;19968;-55
2021/03/13 07:14:11;;;;;;;;;;;;;;;17.08;38.88;98342.31;4415875;32;20010;-52
2021/03/13 07:16:37;;;;;;;;;;;;;;;17.09;38.84;98333.53;4415740;32;19946;-53
2021/03/13 07:19:03;;;;;;;;;;;;;;;17.14;38.75;98338.75;4413767;32;19962;-54
2021/03/13 07:21:32;;;;;;;;;;;;;;;17.16;38.63;98338.75;4406010;32;19962;-59
2021/03/13 07:23:58;;;;;;;;;;;;;;;17.02;39.04;98342.38;4413885;32;19958;-52
2021/03/13 07:26:24;;;;;;;;;;;;;;;14.39;45.26;98324.13;4414330;32;19954;-56
2021/03/13 07:28:50;;;;;;;;;;;;;;;13.06;48.92;98339.75;4415296;32;20030;-57
2021/03/13 07:31:16;;;;;;;;;;;;;;;13.24;50.09;98343.38;4414577;32;20333;-59
2021/03/13 07:33:41;;;;;;;;;;;;;;;13.07;51.10;98336.28;4414619;32;19962;-60
2021/03/13 07:36:07;;;;;;;;;;;;;;;12.54;51.00;98340.94;4413293;32;19999;-59
2021/03/13 07:38:33;;;;;;;;;;;;;;;12.37;51.33;98332.91;4414095;32;19999;-59
2021/03/13 07:40:59;;;;;;;;;;;;;;;12.29;51.00;98330.19;4413383;32;19950;-50
2021/03/13 07:43:25;;;;;;;;;;;;;;;12.57;50.28;98313.97;4414533;32;19962;-53
2021/03/13 07:45:51;;;;;;;;;;;;;;;13.31;48.64;98303.38;4414037;32;19950;-50
2021/03/13 07:48:17;;;;;;;;;;;;;;;13.75;47.54;98300.22;4413888;32;19959;-50
2021/03/13 07:50:46;;;;;;;;;;;;;;;14.39;45.87;98308.44;4413277;32;19993;-51
2021/03/13 07:53:12;;;;;;;;;;;;;;;14.67;45.03;98303.28;4413614;32;20002;-51
2021/03/13 07:55:38;;;;;;;;;;;;;;;14.97;44.47;98303.38;4406636;32;20357;-51
2021/03/13 07:58:04;;;;;;;;;;;;;;;15.31;43.54;98298.16;4415113;32;19958;-50
2021/03/13 08:00:30;;;;;;;;;;;;;;;15.57;42.65;98292.03;4413233;32;20307;-53
2021/03/13 08:02:55;;;;;;;;;;;;;;;15.79;42.13;98292.84;4413610;32;19965;-49
2021/03/13 08:05:21;;;;;;;;;;;;;;;15.92;41.88;98280.63;4413764;32;19964;-51
2021/03/13 08:07:47;;;;;;;;;;;;;;;15.98;41.72;98290.25;4413867;32;19976;-51
2021/03/13 08:10:13;;;;;;;;;;;;;;;16.02;41.59;98289.34;4413791;32;20006;-52
2021/03/13 08:12:39;;;;;;;;;;;;;;;16.22;41.06;98276.13;4414139;32;19962;-60
2021/03/13 08:15:05;;;;;;;;;;;;;;;14.89;44.04;98272.81;4413237;32;19950;-59
2021/03/13 08:17:31;;;;;;;;;;;;;;;13.73;47.19;98269.72;4412366;32;19995;-59
2021/03/13 08:19:57;;;;;;;;;;;;;;;13.17;48.83;98272.78;4415018;32;19958;-57
2021/03/13 08:22:23;;;;;;;;;;;;;;;12.72;49.88;98281.94;4412117;32;20049;-58
2021/03/13 08:24:49;;;;;;;;;;;;;;;12.44;50.79;98268.59;4412766;32;19962;-57
2021/03/13 08:27:15;;;;;;;;;;;;;;;12.18;50.91;98266.56;4413655;32;19959;-57
2021/03/13 08:29:41;;;;;;;;;;;;;;;12.11;51.57;98267.31;4415035;32;19969;-57
2021/03/13 08:32:06;;;;;;;;;;;;;;;12.11;51.14;98277.75;4412113;32;19993;-57
2021/03/13 08:34:33;;;;;;;;;;;;;;;12.07;51.95;98246.41;4414021;32;19942;-58
2021/03/13 08:36:58;;;;;;;;;;;;;;;11.87;51.74;98253.97;4413468;32;19966;-57
2021/03/13 08:39:24;;;;;;;;;;;;;;;11.65;52.47;98231.91;4414789;32;19977;-57
2021/03/13 08:41:50;;;;;;;;;;;;;;;11.57;53.18;98251.81;4413341;32;19954;-58
2021/03/13 08:44:17;;;;;;;;;;;;;;;11.34;53.83;98252.31;4415604;32;19946;-58
2021/03/13 08:46:44;;;;;;;;;;;;;;;11.45;52.96;98240.34;4415686;32;19962;-57
2021/03/13 08:49:10;;;;;;;;;;;;;;;11.34;53.73;98247.13;4413812;32;19981;-57
2021/03/13 08:51:36;;;;;;;;;;;;;;;11.41;53.10;98251.56;4415530;32;19954;-58
2021/03/13 08:54:02;;;;;;;;;;;;;;;11.56;54.19;98244.84;4415493;32;19977;-50
2021/03/13 08:56:28;;;;;;;;;;;;;;;11.70;53.98;98243.28;4413476;32;19986;-48
2021/03/13 08:58:54;;;;;;;;;;;;;;;12.11;53.59;98230.78;4413661;32;19980;-52
2021/03/13 09:01:20;;;;;;;;;;;;;;;12.59;51.95;98234.81;4414483;32;19992;-48
2021/03/13 09:03:46;;;;;;;;;;;;;;;13.01;51.01;98226.44;4414903;32;19990;-49
2021/03/13 09:06:12;;;;;;;;;;;;;;;13.37;50.39;98219.75;4413787;32;19969;-48
2021/03/13 09:08:38;;;;;;;;;;;;;;;13.72;51.34;98211.28;4415671;32;19980;-49
2021/03/13 09:11:04;;;;;;;;;;;;;;;14.11;49.56;98218.41;4414192;32;19954;-51
2021/03/13 09:13:30;;;;;;;;;;;;;;;14.39;48.19;98216.78;4417466;32;19970;-47
2021/03/13 09:15:56;;;;;;;;;;;;;;;14.63;47.79;98209.84;4418047;32;20319;-47
2021/03/13 09:18:22;;;;;;;;;;;;;;;14.77;47.00;98203.75;4416476;32;19958;-46
2021/03/13 09:20:48;;;;;;;;;;;;;;;14.92;46.92;98202.91;4418025;32;19953;-52
2021/03/13 09:23:13;;;;;;;;;;;;;;;15.07;46.33;98192.41;4417134;32;20416;-48
2021/03/13 09:25:39;;;;;;;;;;;;;;;15.21;45.99;98195.03;4417798;32;20042;-50
2021/03/13 09:28:05;;;;;;;;;;;;;;;15.33;46.08;98188.88;4416492;32;19953;-50
2021/03/13 09:30:31;;;;;;;;;;;;;;;15.40;45.86;98188.00;4405814;32;19998;-48
2021/03/13 09:32:57;;;;;;;;;;;;;;;15.54;45.10;98181.84;4404302;32;19996;-45
2021/03/13 09:35:23;;;;;;;;;;;;;;;15.59;44.81;98185.31;4402144;32;20060;-46
2021/03/13 09:37:49;;;;;;;;;;;;;;;15.65;44.75;98189.69;4407514;32;19950;-50
2021/03/13 09:40:15;;;;;;;;;;;;;;;15.70;44.65;98165.19;4401914;32;20364;-47
2021/03/13 09:42:41;;;;;;;;;;;;;;;15.77;44.62;98178.28;4404258;32;20008;-58
2021/03/13 09:45:07;;;;;;;;;;;;;;;15.78;44.72;98157.28;4416616;32;20393;-58
2021/03/13 09:47:33;;;;;;;;;;;;;;;14.00;48.09;98164.28;4416602;32;20046;-43
2021/03/13 09:49:58;;;;;;;;;;;;;;;13.64;49.57;98150.19;4416073;32;19970;-46
2021/03/13 09:52:24;;;;;;;;;;;;;;;14.00;49.51;98153.81;4416748;32;19985;-46
2021/03/13 09:54:50;;;;;;;;;;;;;;;14.69;47.25;98153.94;4411758;32;19954;-46
2021/03/13 09:57:16;;;;;;;;;;;;;;;15.14;46.46;98143.47;4415718;32;19958;-49
2021/03/13 09:59:42;;;;;;;;;;;;;;;15.34;45.97;98151.28;4416830;32;20045;-47
2021/03/13 10:02:08;;;;;;;;;;;;;;;15.46;45.93;98153.03;4415658;32;20026;-52
2021/03/13 10:04:34;;;;;;;;;;;;;;;15.65;45.44;98147.69;4415268;32;19943;-49
2021/03/13 10:07:00;;;;;;;;;;;;;;;15.73;45.80;98146.78;4416113;32;19969;-46
2021/03/13 10:09:27;;;;;;;;;;;;;;;15.85;44.91;98155.47;4413741;32;19994;-50
2021/03/13 10:11:53;;;;;;;;;;;;;;;15.99;45.00;98150.22;4411666;32;20874;-46
2021/03/13 10:14:19;;;;;;;;;;;;;;;15.93;45.07;98153.75;4410750;32;20609;-47
2021/03/13 10:16:45;;;;;;;;;;;;;;;16.09;44.80;98179.91;4415209;32;19970;-51
2021/03/13 10:19:11;;;;;;;;;;;;;;;16.19;44.50;98181.63;4414324;32;20003;-50
2021/03/13 10:21:37;;;;;;;;;;;;;;;16.35;43.94;98234.06;4414911;32;19954;-50
2021/03/13 10:24:02;;;;;;;;;;;;;;;16.44;43.91;98228.75;4412602;32;19993;-46
2021/03/13 10:26:28;;;;;;;;;;;;;;;16.48;43.65;98246.25;4413697;32;20426;-45
2021/03/13 10:28:54;;;;;;;;;;;;;;;16.53;43.31;98248.84;4413867;32;19966;-49
2021/03/13 10:31:20;;;;;;;;;;;;;;;16.58;43.35;98247.94;4412021;32;19993;-46
2021/03/13 10:33:46;;;;;;;;;;;;;;;16.60;43.41;98281.22;4414004;32;19984;-48
2021/03/13 10:36:12;;;;;;;;;;;;;;;16.67;43.36;98278.56;4413207;32;19985;-52
2021/03/13 10:38:39;;;;;;;;;;;;;;;16.69;43.46;98303.09;4413348;32;19969;-46
2021/03/13 10:41:05;;;;;;;;;;;;;;;16.69;43.07;98323.22;4414261;32;20011;-47
2021/03/13 10:43:31;;;;;;;;;;;;;;;16.66;43.71;98323.25;4413702;32;19962;-49
2021/03/13 10:45:57;;;;;;;;;;;;;;;16.65;43.42;98316.25;4412886;32;19986;-48
2021/03/13 10:48:23;;;;;;;;;;;;;;;16.74;43.58;98304.81;4394814;32;20079;-48
2021/03/13 10:50:50;;;;;;;;;;;;;;;16.73;43.16;98327.59;4400055;32;19955;-49
2021/03/13 10:53:16;;;;;;;;;;;;;;;16.72;43.25;98331.09;4397924;32;19958;-47
2021/03/13 10:55:42;;;;;;;;;;;;;;;16.70;43.46;98335.47;4398589;32;19992;-49
2021/03/13 10:58:08;;;;;;;;;;;;;;;16.77;42.90;98338.94;4396376;32;19970;-47
2021/03/13 11:00:34;;;;;;;;;;;;;;;16.71;42.97;98337.22;4399725;32;19980;-47
2021/03/13 11:02:59;;;;;;;;;;;;;;;16.72;43.03;98344.22;4400451;32;20008;-50
2021/03/13 11:05:32;;;;;;;;;;;;;;;16.71;42.61;98347.75;4397721;32;19958;-46
2021/03/13 11:07:58;;;;;;;;;;;;;;;16.68;42.91;98358.28;4397681;32;20378;-48
2021/03/13 11:10:24;;;;;;;;;;;;;;;16.64;42.69;98365.28;4398558;32;19963;-49
2021/03/13 11:12:50;;;;;;;;;;;;;;;16.69;42.49;98355.66;4406688;32;20017;-50
2021/03/13 11:15:16;;;;;;;;;;;;;;;16.71;42.46;98366.12;4411914;32;20050;-50
2021/03/13 11:17:43;;;;;;;;;;;;;;;16.71;42.48;98367.03;4412930;32;20001;-48
2021/03/13 11:20:08;;;;;;;;;;;;;;;16.68;42.37;98374.03;4413509;32;19950;-50
2021/03/13 11:22:34;;;;;;;;;;;;;;;16.69;42.38;98375.78;4411978;32;20128;-49
2021/03/13 11:25:00;;;;;;;;;;;;;;;16.71;42.12;98369.66;4412988;32;19950;-49
2021/03/13 11:27:26;;;;;;;;;;;;;;;16.73;42.07;98351.25;4412001;32;19988;-48
2021/03/13 11:29:52;;;;;;;;;;;;;;;16.74;41.89;98331.97;4413049;32;20050;-45
2021/03/13 11:32:18;;;;;;;;;;;;;;;16.73;41.96;98340.75;4412120;32;19991;-47
2021/03/13 11:34:45;;;;;;;;;;;;;;;16.73;41.75;98332.87;4413656;32;19965;-51
2021/03/13 11:37:11;;;;;;;;;;;;;;;16.69;41.90;98349.50;4412454;32;20025;-48
2021/03/13 11:39:37;;;;;;;;;;;;;;;16.76;41.71;98359.12;4411662;32;19984;-48
2021/03/13 11:42:03;;;;;;;;;;;;;;;16.78;41.70;98348.59;4414269;32;19962;-47
2021/03/13 11:44:29;;;;;;;;;;;;;;;16.75;41.64;98317.94;4413761;32;20004;-46
2021/03/13 11:46:55;;;;;;;;;;;;;;;16.67;41.79;98314.47;4412648;32;19987;-50
2021/03/13 11:49:21;;;;;;;;;;;;;;;16.74;41.67;98289.94;4413650;32;19974;-51
2021/03/13 11:51:47;;;;;;;;;;;;;;;16.69;41.50;98294.31;4413525;32;20003;-50
2021/03/13 11:54:13;;;;;;;;;;;;;;;16.61;42.43;98290.88;4411805;32;20017;-52
2021/03/13 11:56:39;;;;;;;;;;;;;;;16.72;41.72;98287.28;4414339;32;19954;-48
2021/03/13 11:59:05;;;;;;;;;;;;;;;16.75;41.87;98282.91;4412966;32;19958;-51
2021/03/13 12:01:31;;;;;;;;;;;;;;;16.70;42.03;98301.31;4412554;32;20271;-48
2021/03/13 12:03:57;;;;;;;;;;;;;;;16.62;42.04;98321.53;4411672;32;19980;-50
2021/03/13 12:06:23;;;;;;;;;;;;;;;16.67;42.01;98319.75;4412950;32;20041;-46
2021/03/13 12:08:49;;;;;;;;;;;;;;;16.80;41.69;98326.66;4412986;32;20357;-46
2021/03/13 12:11:14;;;;;;;;;;;;;;;16.73;41.87;98338.13;4405850;32;20035;-47
2021/03/13 12:13:40;;;;;;;;;;;;;;;16.81;41.48;98349.44;4399450;32;20402;-45
2021/03/13 12:16:06;;;;;;;;;;;;;;;16.79;41.46;98353.84;4412357;32;20361;-48
2021/03/13 12:18:33;;;;;;;;;;;;;;;16.82;41.22;98348.56;4413633;32;20003;-46
2021/03/13 12:20:59;;;;;;;;;;;;;;;16.88;41.28;98342.41;4413585;32;19984;-49
2021/03/13 12:23:25;;;;;;;;;;;;;;;16.88;41.26;98346.81;4412125;32;20385;-50
2021/03/13 12:25:51;;;;;;;;;;;;;;;16.75;41.60;98348.59;4410988;32;20005;-47
2021/03/13 12:28:17;;;;;;;;;;;;;;;16.86;41.27;98352.94;4411612;32;19958;-46
2021/03/13 12:30:43;;;;;;;;;;;;;;;16.93;41.09;98352.91;4412110;32;20324;-50
2021/03/13 12:33:09;;;;;;;;;;;;;;;16.96;41.13;98350.25;4392536;32;19984;-49
2021/03/13 12:35:35;;;;;;;;;;;;;;;16.98;40.96;98356.38;4404945;32;20003;-49
2021/03/13 12:38:01;;;;;;;;;;;;;;;16.97;40.99;98349.34;4405481;32;20009;-47
2021/03/13 12:40:26;;;;;;;;;;;;;;;17.06;40.88;98337.97;4411845;32;19979;-44